Nelson, Virginia
Current Conditions -  °F | °C
As of 3:55 AM on Wednesday 22 Oct 2014 (Local Time) from KW63 Reporting Station
Overcast Overcast  
Wind Chill: 52°   Ceiling: 6000
Heat Index: 52°   Visibility: 10mi
Dew Point: 43°   Wind: 6mph
Humidity: 71%   Direction: 320°NW
Pressure: 29.91"   Gusts: NA
Location:  36.56°N, 78.7°W
Report Text: KW63 220755Z AUTO 32005KT 10SM SCT044 BKN060 OVC080 11/06 A2991 RMK AO1
Loading
Personal Weather Stations






























Interactive Weather Map New forecast layout! Learn more

10-Day Weather Forecast

Advertisements
Track Severe Weather on mobile